Time;durP1;ratioP1;P1;durP2;ratioP2;P2;SDS_P1;SDS_P2;PMS_P1;PMS_P2;Temp;Humidity;BMP_temperature;BMP_pressure;BME280_temperature;BME280_humidity;BME280_pressure;Samples;Min_cycle;Max_cycle;Signal;HPM_P1;HPM_P2
2024/03/09 00:01:16;;;;;;;0.50;0.50;;;;;;;2.99;100.00;98284.63;5061281;28;20352;-58
2024/03/09 00:03:51;;;;;;;0.50;0.50;;;;;;;2.96;100.00;98277.13;5053128;28;20053;-58
2024/03/09 00:06:18;;;;;;;0.50;0.50;;;;;;;3.11;100.00;98285.53;5047100;28;20132;-57
2024/03/09 00:08:51;;;;;;;0.60;0.60;;;;;;;3.13;100.00;98285.34;5048384;28;20052;-58
2024/03/09 00:11:20;;;;;;;0.50;0.50;;;;;;;3.15;100.00;98285.94;5057670;28;20053;-58
2024/03/09 00:13:50;;;;;;;0.50;0.50;;;;;;;2.95;100.00;98278.97;5055613;28;20045;-59
2024/03/09 00:16:17;;;;;;;0.50;0.50;;;;;;;3.09;100.00;98277.00;5046369;28;20503;-58
2024/03/09 00:18:44;;;;;;;0.50;0.50;;;;;;;3.27;100.00;98268.31;5045255;28;20041;-58
2024/03/09 00:21:11;;;;;;;0.52;0.52;;;;;;;3.21;100.00;98267.31;5045260;28;20053;-58
2024/03/09 00:23:40;;;;;;;0.60;0.60;;;;;;;3.18;99.87;98262.47;5046985;28;20037;-58
2024/03/09 00:26:07;;;;;;;0.50;0.50;;;;;;;3.19;100.00;98264.06;5054401;28;20044;-58
2024/03/09 00:28:40;;;;;;;0.52;0.52;;;;;;;3.52;100.00;98265.59;5046357;28;20072;-58
2024/03/09 00:31:08;;;;;;;0.63;0.63;;;;;;;3.47;97.34;98268.09;5070472;28;20061;-58
2024/03/09 00:33:35;;;;;;;0.50;0.50;;;;;;;3.29;98.91;98278.66;5046353;28;20080;-58
2024/03/09 00:36:04;;;;;;;0.50;0.50;;;;;;;3.16;100.00;98275.09;5050431;28;20075;-58
2024/03/09 00:38:34;;;;;;;0.50;0.50;;;;;;;3.06;100.00;98288.03;5048325;28;20045;-59
2024/03/09 00:41:01;;;;;;;0.65;0.65;;;;;;;3.07;100.00;98297.59;5052121;28;20043;-58
2024/03/09 00:43:29;;;;;;;0.50;0.50;;;;;;;2.84;100.00;98279.66;5059918;28;20098;-57
2024/03/09 00:45:57;;;;;;;0.60;0.60;;;;;;;2.98;100.00;98286.47;5058215;28;20051;-58
2024/03/09 00:48:27;;;;;;;0.60;0.60;;;;;;;2.95;100.00;98283.44;5058859;28;20079;-58
2024/03/09 00:50:54;;;;;;;0.50;0.50;;;;;;;3.05;100.00;98278.47;5056196;28;20049;-57
2024/03/09 00:53:22;;;;;;;0.50;0.50;;;;;;;3.20;100.00;98280.78;5050821;28;20451;-58
2024/03/09 00:55:49;;;;;;;0.50;0.50;;;;;;;3.40;100.00;98280.59;5062443;28;20055;-58
2024/03/09 00:58:21;;;;;;;0.60;0.60;;;;;;;3.64;100.00;98269.13;5048061;28;20129;-58
2024/03/09 01:00:49;;;;;;;0.60;0.60;;;;;;;3.91;100.00;98271.47;5050581;28;20739;-58
2024/03/09 01:03:18;;;;;;;0.50;0.50;;;;;;;4.13;98.72;98271.00;5052441;28;20068;-58
2024/03/09 01:05:45;;;;;;;0.40;0.40;;;;;;;4.05;93.49;98269.47;5055500;28;20048;-58
2024/03/09 01:08:15;;;;;;;0.50;0.50;;;;;;;4.08;94.19;98264.50;5048201;28;20044;-58
2024/03/09 01:10:42;;;;;;;0.50;0.50;;;;;;;4.25;95.33;98253.28;5049671;28;20069;-58
2024/03/09 01:13:14;;;;;;;0.40;0.40;;;;;;;4.08;91.60;98256.56;5048650;28;20151;-58
2024/03/09 01:15:45;;;;;;;0.70;0.70;;;;;;;4.32;92.79;98251.38;5050722;28;20147;-58
2024/03/09 01:18:22;;;;;;;0.60;0.60;;;;;;;4.42;98.82;98256.09;5056754;28;20041;-58
2024/03/09 01:20:53;;;;;;;0.50;0.50;;;;;;;4.47;93.52;98251.75;5050765;28;20048;-58
2024/03/09 01:23:23;;;;;;;0.50;0.50;;;;;;;4.54;94.86;98241.84;5051377;28;20049;-58
2024/03/09 01:25:53;;;;;;;0.40;0.40;;;;;;;4.50;92.36;98242.53;5045512;28;20053;-58
2024/03/09 01:28:20;;;;;;;0.55;0.55;;;;;;;4.43;91.83;98239.97;5046841;28;20131;-58
2024/03/09 01:30:57;;;;;;;0.50;0.50;;;;;;;4.39;90.72;98236.13;5045933;28;20047;-58
2024/03/09 01:33:26;;;;;;;0.47;0.47;;;;;;;4.47;96.62;98229.72;5083989;28;20073;-58
2024/03/09 01:35:53;;;;;;;0.60;0.60;;;;;;;4.46;93.97;98225.44;5051482;28;20121;-59
2024/03/09 01:38:23;;;;;;;0.50;0.50;;;;;;;4.49;94.13;98228.47;5048929;28;20051;-58
2024/03/09 01:40:51;;;;;;;0.50;0.50;;;;;;;4.35;92.80;98226.22;5050306;28;20417;-59
2024/03/09 01:43:21;;;;;;;0.45;0.45;;;;;;;4.27;92.71;98216.75;5051341;28;20124;-58
2024/03/09 01:45:51;;;;;;;0.50;0.50;;;;;;;4.22;95.39;98219.25;5038537;28;20056;-58
2024/03/09 01:48:20;;;;;;;0.60;0.60;;;;;;;4.11;92.71;98213.69;5047153;28;20797;-58
2024/03/09 01:50:48;;;;;;;0.50;0.50;;;;;;;4.07;94.47;98212.53;5044348;28;20502;-59
2024/03/09 01:53:16;;;;;;;0.40;0.40;;;;;;;4.06;95.35;98204.78;5077298;28;20049;-59
2024/03/09 01:55:46;;;;;;;0.50;0.50;;;;;;;4.07;96.23;98201.91;5047592;28;20418;-58
2024/03/09 01:58:13;;;;;;;0.47;0.47;;;;;;;3.93;95.20;98199.66;5051199;28;20128;-57
2024/03/09 02:00:41;;;;;;;0.60;0.60;;;;;;;3.90;95.91;98200.94;5052056;28;20571;-58
2024/03/09 02:03:12;;;;;;;0.60;0.60;;;;;;;4.05;96.00;98193.38;5050022;28;20143;-58
2024/03/09 02:05:40;;;;;;;0.50;0.50;;;;;;;4.16;96.09;98188.34;5055907;28;20041;-58
2024/03/09 02:08:08;;;;;;;0.40;0.40;;;;;;;4.14;95.49;98185.09;5050062;28;20056;-58
2024/03/09 02:10:35;;;;;;;0.50;0.50;;;;;;;4.18;94.29;98186.25;5046899;28;20144;-59
2024/03/09 02:13:03;;;;;;;0.40;0.40;;;;;;;4.21;95.47;98181.31;5051661;28;20053;-58
2024/03/09 02:15:32;;;;;;;0.52;0.52;;;;;;;4.29;94.16;98178.34;5049276;28;20044;-58
2024/03/09 02:17:59;;;;;;;0.50;0.50;;;;;;;4.19;93.97;98182.56;5049231;28;20045;-58
2024/03/09 02:20:30;;;;;;;0.40;0.40;;;;;;;4.23;93.31;98183.75;5050623;28;20132;-58
2024/03/09 02:22:58;;;;;;;0.50;0.50;;;;;;;4.20;93.19;98184.19;5050948;28;20045;-59
2024/03/09 02:25:26;;;;;;;0.50;0.50;;;;;;;4.16;92.03;98180.38;5048969;28;20763;-58
2024/03/09 02:27:54;;;;;;;0.50;0.50;;;;;;;4.19;93.40;98177.25;5034550;28;20878;-58
2024/03/09 02:30:21;;;;;;;0.50;0.50;;;;;;;4.00;94.36;98179.97;5052193;28;20044;-59
2024/03/09 02:32:53;;;;;;;0.50;0.50;;;;;;;4.01;94.46;98180.78;5052530;28;20454;-58
2024/03/09 02:35:20;;;;;;;0.40;0.40;;;;;;;4.02;94.33;98169.97;5052753;28;20448;-57
2024/03/09 02:37:47;;;;;;;0.40;0.40;;;;;;;3.89;94.22;98170.13;5049511;28;20049;-58
2024/03/09 02:40:15;;;;;;;0.52;0.52;;;;;;;3.78;96.08;98170.91;5049075;28;20163;-58
2024/03/09 02:45:24;;;;;;;0.50;0.50;;;;;;;3.99;97.60;98170.41;5053053;28;20048;-57
2024/03/09 02:47:52;;;;;;;0.50;0.50;;;;;;;3.92;95.17;98163.56;5059027;28;20123;-58
2024/03/09 02:50:19;;;;;;;0.57;0.57;;;;;;;3.94;95.70;98164.16;5054286;28;20041;-58
2024/03/09 02:52:47;;;;;;;0.50;0.50;;;;;;;4.00;96.64;98153.47;5054759;28;20515;-58
2024/03/09 02:55:15;;;;;;;0.50;0.50;;;;;;;3.94;96.02;98154.34;5052713;28;20050;-59
2024/03/09 02:57:44;;;;;;;0.50;0.50;;;;;;;3.80;97.24;98153.75;5054109;28;20041;-58
2024/03/09 03:00:14;;;;;;;0.40;0.40;;;;;;;3.81;97.77;98149.25;5057188;28;20573;-58
2024/03/09 03:05:26;;;;;;;0.50;0.50;;;;;;;3.94;96.28;98154.34;5055713;28;20052;-59
2024/03/09 03:07:53;;;;;;;0.40;0.40;;;;;;;3.98;96.16;98150.22;5055097;28;20068;-58
2024/03/09 03:10:20;;;;;;;0.43;0.43;;;;;;;4.15;100.00;98139.00;5060779;28;20132;-57
2024/03/09 03:12:53;;;;;;;0.40;0.40;;;;;;;4.07;96.26;98138.28;5046567;28;20048;-58
2024/03/09 03:15:20;;;;;;;0.50;0.50;;;;;;;4.09;98.27;98130.91;5050068;28;20094;-58
2024/03/09 03:17:48;;;;;;;0.50;0.50;;;;;;;4.15;96.79;98139.78;5056445;28;20052;-59
2024/03/09 03:20:17;;;;;;;0.55;0.55;;;;;;;4.09;96.20;98141.50;5047477;28;20077;-58
2024/03/09 03:22:48;;;;;;;0.50;0.50;;;;;;;4.14;96.71;98140.81;5047645;28;20570;-58
2024/03/09 03:25:15;;;;;;;0.50;0.50;;;;;;;4.17;96.71;98137.72;5051583;28;20544;-60
2024/03/09 03:27:47;;;;;;;0.40;0.40;;;;;;;4.16;95.33;98136.09;5048926;28;20049;-59
2024/03/09 03:30:16;;;;;;;0.43;0.43;;;;;;;4.23;97.38;98130.69;5053297;28;20041;-58
2024/03/09 03:32:46;;;;;;;0.40;0.40;;;;;;;4.18;96.56;98134.03;5052134;28;20044;-58
2024/03/09 03:35:13;;;;;;;0.50;0.50;;;;;;;4.15;95.28;98125.72;5060815;28;20392;-58
2024/03/09 03:37:41;;;;;;;0.50;0.50;;;;;;;4.19;94.63;98118.91;5051098;28;20045;-58
2024/03/09 03:40:09;;;;;;;0.50;0.50;;;;;;;4.11;94.28;98128.81;5061009;28;20067;-58
2024/03/09 03:42:37;;;;;;;0.50;0.50;;;;;;;4.09;94.09;98125.59;5046881;28;20049;-59
2024/03/09 03:45:07;;;;;;;0.40;0.40;;;;;;;4.28;93.33;98117.56;5065961;28;20040;-58
2024/03/09 03:47:35;;;;;;;0.47;0.47;;;;;;;4.35;92.86;98126.22;5049157;28;20606;-58
2024/03/09 03:50:03;;;;;;;0.57;0.57;;;;;;;4.34;93.14;98121.94;5050301;28;20155;-58
2024/03/09 03:52:30;;;;;;;0.50;0.50;;;;;;;4.48;92.16;98110.06;5052403;28;20068;-58
2024/03/09 03:54:57;;;;;;;0.50;0.50;;;;;;;4.28;92.82;98112.25;5049792;28;20048;-58
2024/03/09 03:57:27;;;;;;;0.50;0.50;;;;;;;4.46;90.97;98101.53;5056351;28;20152;-57
2024/03/09 03:59:57;;;;;;;0.50;0.50;;;;;;;4.44;90.97;98100.16;5052466;28;20693;-58
2024/03/09 04:02:33;;;;;;;0.40;0.40;;;;;;;4.28;91.85;98094.47;5059386;28;20048;-58
2024/03/09 04:05:02;;;;;;;0.50;0.50;;;;;;;4.54;90.23;98087.94;5052621;28;20048;-58
2024/03/09 04:07:30;;;;;;;0.50;0.50;;;;;;;4.45;90.94;98086.66;5052316;28;20072;-58
2024/03/09 04:09:57;;;;;;;0.40;0.40;;;;;;;4.16;92.55;98074.28;5049667;28;20462;-58
2024/03/09 04:12:25;;;;;;;0.50;0.50;;;;;;;3.99;93.31;98072.28;5051982;28;20041;-58
2024/03/09 04:14:54;;;;;;;0.57;0.57;;;;;;;3.84;94.27;98087.81;5049787;28;20064;-58
2024/03/09 04:17:21;;;;;;;0.50;0.50;;;;;;;3.83;96.07;98099.47;5052965;28;20525;-58
2024/03/09 04:19:51;;;;;;;0.52;0.52;;;;;;;3.72;96.00;98098.41;5047707;28;20071;-58
2024/03/09 04:22:20;;;;;;;0.50;0.50;;;;;;;3.74;96.58;98100.81;5051250;28;20746;-58
2024/03/09 04:24:53;;;;;;;0.50;0.50;;;;;;;3.72;96.35;98081.69;5049783;28;20506;-58
2024/03/09 04:27:20;;;;;;;0.50;0.50;;;;;;;3.45;99.27;98082.06;5055996;28;20106;-58
2024/03/09 04:29:53;;;;;;;0.50;0.50;;;;;;;3.28;100.00;98089.00;5050209;28;20091;-56
2024/03/09 04:32:20;;;;;;;0.50;0.50;;;;;;;3.47;99.76;98087.97;5063589;28;20049;-58
2024/03/09 04:34:53;;;;;;;0.50;0.50;;;;;;;3.64;98.20;98081.00;5054084;28;20045;-58
2024/03/09 04:37:27;;;;;;;0.52;0.52;;;;;;;3.76;98.97;98083.66;5054820;28;20046;-58
2024/03/09 04:39:58;;;;;;;0.60;0.60;;;;;;;3.85;98.02;98084.16;5052075;28;20058;-59
2024/03/09 04:42:26;;;;;;;0.50;0.50;;;;;;;3.54;98.38;98086.00;5045634;28;20186;-58
2024/03/09 04:44:54;;;;;;;0.43;0.43;;;;;;;3.74;98.46;98079.63;5050573;28;20049;-58
2024/03/09 04:47:22;;;;;;;0.60;0.60;;;;;;;3.85;97.92;98081.50;5043960;28;20052;-58
2024/03/09 04:49:53;;;;;;;0.50;0.50;;;;;;;3.94;98.62;98096.03;5050744;28;21097;-58
2024/03/09 04:52:22;;;;;;;0.50;0.50;;;;;;;3.95;99.60;98086.25;5050909;28;20676;-58
2024/03/09 04:54:50;;;;;;;0.60;0.60;;;;;;;3.96;99.15;98082.56;5051454;28;20041;-59
2024/03/09 04:57:24;;;;;;;0.50;0.50;;;;;;;3.80;98.01;98089.34;5053896;28;20139;-59
2024/03/09 04:59:54;;;;;;;0.60;0.60;;;;;;;3.75;97.34;98075.94;5058073;28;20041;-58
2024/03/09 05:02:21;;;;;;;;;;;;;;;3.55;100.00;98092.13;5050551;28;20070;-58
2024/03/09 05:04:51;;;;;;;0.60;0.60;;;;;;;3.41;100.00;98086.19;5050308;28;20417;-58
2024/03/09 05:07:18;;;;;;;0.40;0.40;;;;;;;3.39;100.00;98083.75;5048137;28;20049;-57
2024/03/09 05:09:47;;;;;;;0.40;0.40;;;;;;;3.52;100.00;98088.09;5048613;28;20098;-58
2024/03/09 05:12:15;;;;;;;0.50;0.50;;;;;;;3.56;100.00;98091.88;5046772;28;20049;-58
2024/03/09 05:14:42;;;;;;;0.40;0.40;;;;;;;3.51;100.00;98085.66;5046499;28;20044;-58
2024/03/09 05:17:14;;;;;;;0.55;0.55;;;;;;;3.60;100.00;98087.78;5053883;28;20144;-58
2024/03/09 05:19:41;;;;;;;0.55;0.55;;;;;;;3.31;100.00;98094.66;5044719;28;20079;-58
2024/03/09 05:22:09;;;;;;;0.50;0.50;;;;;;;3.46;100.00;98083.69;5048145;28;20570;-57
2024/03/09 05:24:40;;;;;;;0.60;0.60;;;;;;;3.32;100.00;98084.88;5053322;28;20083;-58
2024/03/09 05:27:08;;;;;;;0.50;0.50;;;;;;;3.14;100.00;98094.47;5050933;28;20045;-58
2024/03/09 05:29:36;;;;;;;0.60;0.60;;;;;;;3.39;100.00;98088.25;5050258;28;20052;-58
2024/03/09 05:32:05;;;;;;;0.60;0.60;;;;;;;3.39;100.00;98083.75;5047902;28;20037;-57
2024/03/09 05:34:36;;;;;;;0.50;0.50;;;;;;;3.18;100.00;98093.00;5056052;28;20048;-58
2024/03/09 05:37:06;;;;;;;0.60;0.60;;;;;;;3.29;100.00;98087.97;5059634;28;20050;-58
2024/03/09 05:39:36;;;;;;;0.55;0.55;;;;;;;3.25;100.00;98082.31;5059385;28;20102;-57
2024/03/09 05:42:05;;;;;;;0.50;0.50;;;;;;;3.43;100.00;98081.47;5049514;28;20555;-58
2024/03/09 05:44:34;;;;;;;0.50;0.50;;;;;;;3.45;100.00;98087.38;5050384;28;20041;-57
2024/03/09 05:47:01;;;;;;;0.60;0.60;;;;;;;3.39;100.00;98082.94;5050828;28;20106;-59
2024/03/09 05:49:28;;;;;;;0.52;0.52;;;;;;;3.41;100.00;98081.69;5051069;28;20045;-58
2024/03/09 05:51:57;;;;;;;0.50;0.50;;;;;;;3.36;100.00;98088.69;5053302;28;20048;-57
2024/03/09 05:54:24;;;;;;;0.50;0.50;;;;;;;3.51;100.00;98086.47;5056295;28;20044;-58
2024/03/09 05:56:52;;;;;;;0.57;0.57;;;;;;;3.60;100.00;98081.66;5053835;28;20049;-58
2024/03/09 05:59:19;;;;;;;0.45;0.45;;;;;;;3.53;98.52;98081.75;5048658;28;20045;-58
2024/03/09 06:01:53;;;;;;;0.50;0.50;;;;;;;3.50;99.75;98090.16;5045053;28;20053;-58
2024/03/09 06:04:21;;;;;;;0.60;0.60;;;;;;;3.58;100.00;98103.06;5060207;28;20083;-58
2024/03/09 06:06:49;;;;;;;0.50;0.50;;;;;;;3.67;100.00;98099.09;5050879;28;20710;-58
2024/03/09 06:09:17;;;;;;;0.50;0.50;;;;;;;3.13;100.00;98089.41;5049157;28;20052;-58
2024/03/09 06:11:47;;;;;;;0.50;0.50;;;;;;;3.13;100.00;98090.19;5048455;28;21519;-58
2024/03/09 06:14:18;;;;;;;0.50;0.50;;;;;;;3.30;100.00;98093.06;5053424;28;20049;-58
2024/03/09 06:16:45;;;;;;;;;;;;;;;3.27;100.00;98095.31;5052389;28;20048;-58
2024/03/09 06:19:14;;;;;;;0.70;0.70;;;;;;;3.28;100.00;98094.31;5060446;28;19924;-57
2024/03/09 06:21:42;;;;;;;0.50;0.50;;;;;;;3.23;100.00;98087.84;5058058;28;20043;-57
2024/03/09 06:24:09;;;;;;;0.60;0.60;;;;;;;3.18;100.00;98087.69;5055646;28;20052;-58
2024/03/09 06:26:36;;;;;;;0.50;0.50;;;;;;;3.22;100.00;98088.03;5053545;28;20106;-58
2024/03/09 06:29:04;;;;;;;0.40;0.40;;;;;;;3.24;100.00;98086.81;5056726;28;20531;-58
2024/03/09 06:31:34;;;;;;;0.70;0.70;;;;;;;3.41;100.00;98091.50;5049215;28;20073;-57
2024/03/09 06:34:03;;;;;;;0.60;0.60;;;;;;;3.77;97.88;98081.81;5051830;28;20547;-58
2024/03/09 06:36:33;;;;;;;0.50;0.50;;;;;;;3.78;96.17;98091.41;5059380;28;20052;-58
2024/03/09 06:39:00;;;;;;;0.50;0.50;;;;;;;3.53;97.59;98088.91;5056578;28;20036;-58
2024/03/09 06:41:27;;;;;;;0.47;0.47;;;;;;;3.70;95.48;98083.78;5049413;28;20057;-58
2024/03/09 06:43:57;;;;;;;0.50;0.50;;;;;;;3.93;94.52;98083.03;5053354;28;20040;-57
2024/03/09 06:46:24;;;;;;;;;;;;;;;3.97;93.61;98084.16;5058975;28;20457;-57
2024/03/09 06:48:52;;;;;;;0.50;0.50;;;;;;;3.94;93.45;98090.72;5054083;28;20156;-58
2024/03/09 06:51:21;;;;;;;0.50;0.50;;;;;;;4.13;92.46;98095.97;5049531;28;20052;-58
2024/03/09 06:53:51;;;;;;;0.57;0.57;;;;;;;4.30;89.85;98103.03;5058517;28;20119;-58
2024/03/09 06:56:18;;;;;;;0.60;0.60;;;;;;;5.22;86.56;98106.91;5054564;28;20051;-58
2024/03/09 06:58:48;;;;;;;0.60;0.60;;;;;;;5.89;80.94;98110.78;5055469;28;20084;-58
2024/03/09 07:01:20;;;;;;;0.60;0.60;;;;;;;6.09;77.57;98105.88;5051424;28;20553;-58
2024/03/09 07:03:47;;;;;;;0.60;0.60;;;;;;;5.95;78.37;98109.88;5050582;28;20526;-57
2024/03/09 07:06:14;;;;;;;0.60;0.60;;;;;;;5.86;81.27;98113.94;5055368;28;20048;-58
2024/03/09 07:08:42;;;;;;;0.50;0.50;;;;;;;6.39;77.76;98107.38;5047269;28;20060;-58
2024/03/09 07:11:11;;;;;;;0.60;0.60;;;;;;;6.66;74.58;98103.03;5049509;28;20041;-56
2024/03/09 07:13:40;;;;;;;0.50;0.50;;;;;;;6.45;74.20;98098.44;5054045;28;20490;-58
2024/03/09 07:16:07;;;;;;;0.60;0.60;;;;;;;6.45;75.18;98114.41;5054164;28;20383;-58
2024/03/09 07:18:36;;;;;;;0.50;0.50;;;;;;;7.02;72.18;98119.50;5052680;28;20053;-58
2024/03/09 07:21:05;;;;;;;0.43;0.43;;;;;;;7.90;67.32;98122.09;5048154;28;20056;-58
2024/03/09 07:23:32;;;;;;;0.50;0.50;;;;;;;7.82;67.00;98116.44;5053550;28;20037;-59
2024/03/09 07:26:01;;;;;;;0.50;0.50;;;;;;;8.52;63.09;98109.31;5051462;28;20044;-59
2024/03/09 07:28:29;;;;;;;0.50;0.50;;;;;;;8.91;62.37;98111.69;5050739;28;20059;-58
2024/03/09 07:30:57;;;;;;;0.50;0.50;;;;;;;8.42;61.83;98110.84;5052603;28;20658;-58
2024/03/09 07:33:24;;;;;;;0.40;0.40;;;;;;;8.90;62.40;98110.09;5056207;28;20041;-58
2024/03/09 07:35:56;;;;;;;0.47;0.47;;;;;;;9.27;60.62;98116.16;5050907;28;20040;-58
2024/03/09 07:38:23;;;;;;;0.30;0.30;;;;;;;9.81;58.74;98114.19;5049698;28;20044;-59
2024/03/09 07:40:57;;;;;;;0.40;0.40;;;;;;;9.29;59.30;98124.72;5051300;28;20061;-59
2024/03/09 07:43:25;;;;;;;0.30;0.30;;;;;;;10.01;56.80;98111.56;5056534;28;20097;-59
2024/03/09 07:45:56;;;;;;;0.40;0.40;;;;;;;9.98;57.34;98108.59;5055245;28;20044;-59
2024/03/09 07:48:23;;;;;;;0.40;0.40;;;;;;;10.22;56.00;98117.75;5061719;28;20067;-58
2024/03/09 07:50:51;;;;;;;0.40;0.40;;;;;;;9.95;56.29;98115.28;5060010;28;20047;-59
2024/03/09 07:53:21;;;;;;;0.40;0.40;;;;;;;9.75;57.49;98112.59;5067567;28;20036;-59
2024/03/09 07:55:49;;;;;;;0.30;0.30;;;;;;;10.43;58.37;98107.06;5052943;28;20090;-59
2024/03/09 07:58:16;;;;;;;0.32;0.32;;;;;;;10.54;54.34;98108.66;5045950;28;20107;-59
2024/03/09 08:00:49;;;;;;;0.40;0.40;;;;;;;10.03;57.46;98109.41;5057353;28;20049;-59
2024/03/09 08:03:19;;;;;;;0.30;0.30;;;;;;;10.29;55.60;98104.13;5054999;28;20054;-59
2024/03/09 08:05:47;;;;;;;;;;;;;;;9.42;56.55;98094.03;5048716;28;20033;-59
2024/03/09 08:08:14;;;;;;;0.30;0.30;;;;;;;7.02;64.97;98086.72;5056181;28;19932;-59
2024/03/09 08:10:41;;;;;;;0.45;0.45;;;;;;;6.56;70.52;98089.53;5050234;28;20049;-58
2024/03/09 08:13:10;;;;;;;0.38;0.38;;;;;;;8.16;64.72;98084.97;5053337;28;20048;-58
2024/03/09 08:15:37;;;;;;;0.40;0.40;;;;;;;9.02;62.17;98079.44;5051727;28;20053;-58
2024/03/09 08:18:07;;;;;;;0.40;0.40;;;;;;;8.33;64.14;98074.97;5055617;28;20045;-58
2024/03/09 08:20:35;;;;;;;0.40;0.40;;;;;;;8.94;59.79;98073.78;5046509;28;20041;-58
2024/03/09 08:23:04;;;;;;;0.47;0.47;;;;;;;9.86;57.55;98085.59;5051788;28;20037;-58
2024/03/09 08:25:33;;;;;;;0.38;0.38;;;;;;;8.71;60.32;98085.66;5049799;28;20048;-58
2024/03/09 08:28:00;;;;;;;0.30;0.30;;;;;;;7.73;64.89;98100.84;5056183;28;20479;-59
2024/03/09 08:30:28;;;;;;;0.50;0.50;;;;;;;7.56;65.98;98095.63;5054686;28;20055;-58
2024/03/09 08:32:58;;;;;;;0.40;0.40;;;;;;;8.10;66.96;98094.00;5049461;28;20526;-58
2024/03/09 08:35:27;;;;;;;0.40;0.40;;;;;;;7.05;67.76;98095.03;5058715;28;20516;-58
2024/03/09 08:37:56;;;;;;;0.40;0.40;;;;;;;8.61;64.97;98081.06;5055003;28;20048;-58
2024/03/09 08:40:25;;;;;;;0.45;0.45;;;;;;;10.03;58.19;98079.97;5048819;28;20048;-58
2024/03/09 08:42:56;;;;;;;0.47;0.47;;;;;;;9.53;59.32;98081.47;5052511;28;20161;-58
2024/03/09 08:45:24;;;;;;;0.30;0.30;;;;;;;9.76;59.16;98079.38;5049763;28;20032;-57
2024/03/09 08:47:51;;;;;;;0.30;0.30;;;;;;;10.12;57.49;98081.03;5052883;28;20125;-57
2024/03/09 08:50:19;;;;;;;0.30;0.30;;;;;;;9.43;59.45;98065.41;5049335;28;20095;-57
2024/03/09 08:52:46;;;;;;;0.32;0.32;;;;;;;9.41;58.53;98067.53;5051534;28;20090;-57
2024/03/09 08:55:15;;;;;;;0.30;0.30;;;;;;;9.98;57.53;98058.53;5053754;28;20056;-57
2024/03/09 08:57:43;;;;;;;0.30;0.30;;;;;;;10.03;57.74;98063.91;5054689;28;20045;-57
2024/03/09 09:00:11;;;;;;;0.40;0.40;;;;;;;9.97;58.40;98064.97;5044709;28;20052;-57
2024/03/09 09:02:40;;;;;;;0.30;0.30;;;;;;;11.15;55.01;98070.19;5053423;28;20033;-58
2024/03/09 09:05:11;;;;;;;0.30;0.30;;;;;;;10.90;55.11;98069.19;5050780;28;20564;-58
2024/03/09 09:07:40;;;;;;;0.25;0.25;;;;;;;11.67;52.91;98063.50;5050708;28;20080;-58
2024/03/09 09:10:11;;;;;;;0.30;0.30;;;;;;;11.22;54.48;98068.00;5047363;28;21146;-57
2024/03/09 09:12:40;;;;;;;0.30;0.30;;;;;;;11.97;52.31;98067.88;5065119;28;20556;-57
2024/03/09 09:15:09;;;;;;;0.28;0.28;;;;;;;11.40;52.68;98058.53;5049962;28;20040;-56
2024/03/09 09:17:36;;;;;;;0.30;0.30;;;;;;;11.79;52.36;98058.59;5050473;28;20495;-58
2024/03/09 09:20:04;;;;;;;0.20;0.20;;;;;;;11.15;53.80;98059.47;5046325;28;20045;-58
2024/03/09 09:22:32;;;;;;;0.28;0.28;;;;;;;10.98;54.79;98054.41;5045246;28;20102;-57
2024/03/09 09:24:59;;;;;;;0.30;0.30;;;;;;;11.52;53.43;98050.97;5048607;28;20281;-57
2024/03/09 09:27:28;;;;;;;0.20;0.20;;;;;;;12.19;52.35;98050.53;5053652;28;20052;-57
2024/03/09 09:29:59;;;;;;;0.22;0.22;;;;;;;12.54;50.56;98044.03;5045699;28;20041;-57
2024/03/09 09:32:26;;;;;;;0.20;0.20;;;;;;;12.66;49.97;98040.97;5052059;28;20049;-57
2024/03/09 09:34:57;;;;;;;0.20;0.20;;;;;;;12.16;50.64;98035.78;5053796;28;20717;-57
2024/03/09 09:37:24;;;;;;;0.20;0.20;;;;;;;12.28;51.03;98030.03;5054162;28;20053;-57
2024/03/09 09:39:55;;;;;;;0.25;0.25;;;;;;;12.26;51.17;98026.84;5047941;28;20048;-57
2024/03/09 09:42:24;;;;;;;0.20;0.20;;;;;;;12.00;51.80;98035.09;5054778;28;20045;-56
2024/03/09 09:44:52;;;;;;;0.30;0.30;;;;;;;12.03;52.10;98034.56;5049771;28;20037;-57
2024/03/09 09:47:21;;;;;;;0.20;0.20;;;;;;;11.89;52.27;98030.09;5052020;28;20048;-57
2024/03/09 09:49:51;;;;;;;0.30;0.30;;;;;;;12.75;51.62;98020.44;5048037;28;20047;-57
2024/03/09 09:52:18;;;;;;;0.10;0.10;;;;;;;11.40;54.19;98020.97;5052190;28;20049;-57
2024/03/09 09:54:45;;;;;;;0.20;0.20;;;;;;;11.81;53.11;98023.41;5041838;28;20087;-59
2024/03/09 09:57:14;;;;;;;0.20;0.20;;;;;;;11.17;52.54;98017.88;5053869;28;20033;-57
2024/03/09 09:59:41;;;;;;;0.25;0.25;;;;;;;12.45;51.80;98014.28;5044933;28;20682;-59
2024/03/09 10:02:11;;;;;;;0.10;0.10;;;;;;;11.51;52.82;98011.00;5058390;28;20152;-57
2024/03/09 10:04:40;;;;;;;0.20;0.20;;;;;;;9.22;58.40;98001.19;5049558;28;20044;-57
2024/03/09 10:07:08;;;;;;;0.20;0.20;;;;;;;9.79;58.61;97993.25;5049680;28;20068;-57
2024/03/09 10:09:35;;;;;;;0.38;0.38;;;;;;;10.51;58.07;97997.50;5045376;28;20048;-56
2024/03/09 10:12:03;;;;;;;0.30;0.30;;;;;;;9.89;57.67;97993.25;5049428;28;20047;-59
2024/03/09 10:14:31;;;;;;;0.30;0.30;;;;;;;9.69;59.59;97991.38;5052262;28;20114;-58
2024/03/09 10:17:01;;;;;;;0.30;0.30;;;;;;;9.40;61.49;97985.72;5051537;28;20037;-57
2024/03/09 10:19:30;;;;;;;0.30;0.30;;;;;;;9.60;61.19;97987.63;5046530;28;20377;-57
2024/03/09 10:21:58;;;;;;;0.30;0.30;;;;;;;10.56;58.63;97991.31;5045273;28;20045;-58
2024/03/09 10:24:26;;;;;;;0.40;0.40;;;;;;;11.70;55.58;97982.41;5048799;28;20048;-57
2024/03/09 10:26:56;;;;;;;0.30;0.30;;;;;;;12.39;52.92;97988.56;5048386;28;20094;-57
2024/03/09 10:29:24;;;;;;;0.20;0.20;;;;;;;12.62;52.17;97978.91;5055790;28;20047;-57
2024/03/09 10:31:52;;;;;;;0.30;0.30;;;;;;;10.63;56.81;97977.63;5047582;28;20057;-58
2024/03/09 10:34:19;;;;;;;0.25;0.25;;;;;;;11.14;56.82;97974.75;5048372;28;20037;-58
2024/03/09 10:36:46;;;;;;;0.30;0.30;;;;;;;12.47;52.79;97968.31;5057532;28;20040;-57
2024/03/09 10:39:19;;;;;;;0.40;0.40;;;;;;;12.05;54.00;97967.13;5046324;28;20048;-57
2024/03/09 10:41:47;;;;;;;0.20;0.20;;;;;;;12.92;51.50;97961.59;5053616;28;20048;-57
2024/03/09 10:44:14;;;;;;;0.20;0.20;;;;;;;12.70;52.35;97956.78;5052100;28;20629;-58
2024/03/09 10:46:42;;;;;;;0.30;0.30;;;;;;;12.72;52.67;97956.47;5052679;28;20033;-58
2024/03/09 10:49:11;;;;;;;0.30;0.30;;;;;;;12.96;52.50;97948.41;5051481;28;20053;-58
2024/03/09 10:51:42;;;;;;;0.20;0.20;;;;;;;13.23;51.42;97941.56;5052437;28;20071;-57
2024/03/09 10:54:18;;;;;;;0.20;0.20;;;;;;;13.73;49.97;97944.63;5039631;28;20057;-57
2024/03/09 10:56:46;;;;;;;0.28;0.28;;;;;;;12.70;51.16;97937.97;5047761;28;20538;-57
2024/03/09 10:59:14;;;;;;;0.20;0.20;;;;;;;12.25;53.13;97944.63;5050165;28;20045;-57
2024/03/09 11:01:44;;;;;;;0.20;0.20;;;;;;;12.96;51.88;97932.25;5048871;28;20091;-57
2024/03/09 11:04:11;;;;;;;0.20;0.20;;;;;;;13.45;51.52;97932.94;5046581;28;20045;-57
2024/03/09 11:06:38;;;;;;;0.20;0.20;;;;;;;12.85;52.29;97925.41;5054653;28;20098;-57
2024/03/09 11:09:11;;;;;;;0.25;0.25;;;;;;;12.66;53.16;97923.50;5049500;28;20045;-58
2024/03/09 11:11:40;;;;;;;0.20;0.20;;;;;;;12.51;51.37;97931.75;5059803;28;20044;-58
2024/03/09 11:14:08;;;;;;;0.30;0.30;;;;;;;12.21;53.44;97922.94;5050902;28;20503;-57
2024/03/09 11:16:36;;;;;;;0.20;0.20;;;;;;;13.22;51.68;97921.16;5057061;28;20550;-57
2024/03/09 11:19:03;;;;;;;0.20;0.20;;;;;;;13.01;50.12;97917.94;5049168;28;20052;-57
2024/03/09 11:21:32;;;;;;;0.20;0.20;;;;;;;12.87;51.48;97907.09;5053585;28;20502;-58
2024/03/09 11:24:07;;;;;;;0.20;0.20;;;;;;;13.02;49.97;97898.81;5050973;28;20048;-57
2024/03/09 11:26:35;;;;;;;0.20;0.20;;;;;;;13.47;49.18;97909.22;5051155;28;20119;-58
2024/03/09 11:29:04;;;;;;;0.10;0.10;;;;;;;13.11;50.24;97897.09;5053953;28;20064;-57
2024/03/09 11:31:31;;;;;;;0.20;0.20;;;;;;;13.36;50.63;97889.75;5049702;28;20108;-57
2024/03/09 11:34:13;;;;;;;0.20;0.20;;;;;;;13.15;51.42;97892.72;5049307;28;20062;-57
2024/03/09 11:36:46;;;;;;;0.20;0.20;;;;;;;12.95;51.84;97898.38;5035367;28;20133;-57
2024/03/09 11:39:14;;;;;;;0.20;0.20;;;;;;;12.64;52.67;97874.59;5045124;28;20049;-56
2024/03/09 11:41:46;;;;;;;0.20;0.20;;;;;;;12.71;52.32;97875.03;5062397;28;20317;-57
2024/03/09 11:44:16;;;;;;;0.20;0.20;;;;;;;12.70;53.14;97868.06;5047391;28;20150;-57
2024/03/09 11:46:47;;;;;;;0.22;0.22;;;;;;;12.17;53.77;97878.91;5057243;28;20067;-57
2024/03/09 11:49:14;;;;;;;;;;;;;;;11.67;54.71;97867.56;5054638;28;20137;-57
2024/03/09 11:51:41;;;;;;;0.30;0.30;;;;;;;12.09;53.91;97869.59;5049481;28;19929;-57